Gobowen, United Kingdom
Current Conditions -  °F | °C
As of 2:30 PM on Tuesday 21 Oct 2014 (Local Time) from EGOS Reporting Station
Rain Showers Rain Showers  
Wind Chill: 50°   Ceiling: 4500
Heat Index: 50°   Visibility: 6mi
Dew Point: 39°   Wind: 24mph
Humidity: 66%   Direction: 280°W
Pressure: 29.77"   Gusts: 45mph
Location:  52.9°N, 3.04°W
Report Text: EGOS 211330Z 28021G39KT 9999 4000N SHRA SCT020CB BKN045 10/04 Q1008 GRN TEMPO 9999 NSW FEW020CB BLU
Loading
Personal Weather Stations






























Interactive Weather Map
Tropical Storm Tracking
New forecast layout! Learn more

10-Day Weather Forecast

Advertisements
Track Severe Weather on mobile